Hammond, Montana
Current Conditions -  °F | °C
As of 8:15 AM on Monday 24 Nov 2014 (Local Time) from KSPF Reporting Station
Light Snow Light Snow  
Wind Chill: 22°   Ceiling: 1400
Heat Index: 32°   Visibility: 1mi
Dew Point: 28°   Wind: 15mph
Humidity: 87%   Direction: 300°WNW
Pressure: 29.83"   Gusts: 21mph
Location:  45.23°N, 104.92°W
Report Text: KSPF 241515Z AUTO 30013G18KT 1SM -SN BKN014 00/M02 A2983 RMK AO2 P0002
Loading
Personal Weather Stations






























Interactive Weather Map New forecast layout! Learn more

10-Day Weather Forecast

Advertisements
Track Severe Weather on mobile